Terminal Aerodrome Forecast
Issued by NWS Duluth, MN

Home | Current Version | Previous Version | Text Only | Print | Product List | Glossary On
Versions: 1 2 3 4 5 6 7 8 9 10 11 12 13 14 15 16 17 18 19 20 21 22 23 24 25 26 27 28 29 30 31 32 33 34 35 36
000
FTUS43 KDLH 271700
TAFDLH
TAF
KDLH 271738Z 2718/2818 18011KT P6SM SCT070
     FM272000 20010G17KT P6SM FEW040
     FM280100 VRB03KT P6SM SCT035
     FM280900 23004KT 5SM BR FEW007
      TEMPO 2810/2812 3SM BR SCT004
     FM281400 25006KT P6SM SCT035=

USA.gov is the U.S. government's official web portal to all federal, state and local government web resources and services.